首页
METAR-TAF:

METAR-TAF

机场 :

努瓜婁發國際機場

汤加塔布岛, 汤加

纬度: 21-14S, 经度: 175-09W, 海拔: 38米

当前天气观测

该预报发布于16分钟前的00:00 UTC
风速8节,风向
温度 25°C
湿度 83%
气压 1018 hPa
能见度10公里或以上
少量云层高于1800英尺
散云层高于12000英尺
多云层高于27000英尺

METAR: NFTF 250000Z 09008KT 9999 FEW018 SCT120 BKN270 25/22 Q1018

时间: 13:16 (00:16 UTC)

预报

该预报发布于1小时和1分钟前的23:15 UTC
预报有效从25日的 00点(UTC)到 25日的 24点(UTC)
风速10节,风向
能见度10公里或以上
散云层高于1600英尺
多云层高于10000英尺
几率 30% :
短暂存在
从 25日的 12点(UTC)到 25日的 24点(UTC)
能見度: 5000
多云层高于1500英尺
阵雨

TAF: NFTF 242315Z 2500/2524 08010KT 9999 SCT016 BKN100 PROB30 TEMPO 2512/2524 5000 SHRA BKN015

超过4000个机场的气象观测和天气预报(METAR&TAF报告)。

可查询的气象台以黄色和红色小点在地图上表示。

将鼠标移到小点上方,可查看气象台名称。

然后点击查看天气观测和预报。

如需切换地图:点击带黑十字的绿色按钮放大地图;点击带横线的绿色按钮缩小地图;或者点击绿色箭头查看邻近地区的地图。


METAR-TAF: